Terminal Aerodrome Forecast
Issued by NWS

Home | Current Version | Previous Version | Text Only | Print | Product List | Glossary On
Versions: 1 2 3 4 5 6 7 8 9 10 11 12 13 14 15 16 17
444
FTUS44 KLZK 201504 AAA
TAFLIT
TAF AMD
KLIT 201504Z 2015/2112 23010G18KT P6SM SCT015 SCT050
      TEMPO 2015/2019 BKN015
     FM210100 18003KT P6SM FEW050
     FM211000 00000KT 5SM BR SKC=

USA.gov is the U.S. government's official web portal to all federal, state and local government web resources and services.